Rogers Spring, Nevada Weather observations

Data are for 10 minute period ending at time listed.
 Day   Time   Solar   Ave.   Ave.  Ave.  Vector  Max.   Baro.   Total    
  of    of     Rad.   Air    Rel.  Wind   Wind   Wind  Press.  Precip.   
Year   Day            Temp.  Hum.  Speed  Dir.   Gust                    
2016   (PST)  Kw/m2    F      %     mph   deg.    mph    mb.     in.     
-------------------------------------------------------------------------
 239    4:50   0.00   73.7    24    3.0   149     5.3   930.9    0.00 
 239    5:00   0.00   73.6    24    3.1   141     5.7   931.0    0.00 
 239    5:10   0.00   73.8    24    3.1   146     7.2   931.1    0.00 
 239    5:20   0.00   73.6    24    1.5   139     4.4   931.3    0.00 
 239    5:30   0.00   71.6    28    1.1   271     2.9   931.4    0.00 
 239    5:40   0.00   68.2    32    1.1   199     3.4   931.5    0.00 
 239    5:50   0.00   69.3    30    1.0   220     2.6   931.6    0.00 
 239    6:00   0.00   69.9    30    0.8   169     2.8   931.7    0.00 
 239    6:10   0.00   67.5    38    0.8   340     1.7   931.7    0.00 
 239    6:20   0.00   65.8    40    0.8    44     1.8   931.8    0.00 
 239    6:30   0.00   67.4    37    1.9    43     3.0   931.9    0.00 
 239    6:40   0.00   69.5    37    1.2    48     3.8   932.0    0.00 
 239    6:50   0.00   69.2    44    0.0     2     0.5   932.1    0.00 
 239    7:00   0.00   72.3    39    0.0     0     0.0   932.2    0.00 
 239    7:10   0.00   78.3    26    0.1   192     1.5   932.3    0.00 
 239    7:20   0.00   81.7    24    0.8   247     2.6   932.3    0.00 
 239    7:30   0.00   83.0    22    0.8   218     2.0   932.3    0.00 
 239    7:40   0.00   84.2    19    2.8   185     6.0   932.4    0.00 
 239    7:50   0.00   84.4    21    2.1   236     4.6   932.3    0.00 
 239    8:00   0.17   85.0    20    2.3   230     6.1   932.2    0.00 
 239    8:10   0.35   85.5    18    2.9   204     5.2   932.2    0.00 
 239    8:20   0.37   86.2    18    3.5   203     9.0   932.2    0.00 
 239    8:30   0.39   86.2    18    3.7   200     7.7   932.1    0.00 
 239    8:40   0.41   86.9    17    3.7   211     7.4   932.0    0.00 
 239    8:50   0.43   87.5    17    3.9   218     6.9   932.0    0.00 
 239    9:00   0.45   88.6    16    3.0   201     6.4   932.0    0.00 
 239    9:10   0.47   88.9    15    2.5   224     5.3   931.9    0.00 
 239    9:20   0.47   90.4    15    1.9   200     6.2   931.9    0.00 
 239    9:30   0.50   90.7    14    2.4   198     6.4   931.9    0.00 
 239    9:40   0.52   90.8    15    3.7   214     7.8   931.9    0.00 
 239    9:50   0.53   91.3    14    4.1   206     8.3   931.9    0.00 
 239   10:00   0.54   93.2    13    3.1   188     7.1   931.9    0.00 
 239   10:10   0.55   93.1    13    3.9   163     9.3   931.8    0.00 
 239   10:20   0.56   92.9    13    2.3   237     5.7   931.8    0.00 
 239   10:30   0.58   93.4    13    4.4   176     8.1   931.7    0.00 
 239   10:40   0.59   93.9    13    3.6   204     8.9   931.7    0.00 
 239   10:50   0.60   94.6    12    4.6   157     9.9   931.6    0.00 
 239   11:00   0.48   94.8    12    6.3   172    13.1   931.6    0.00 
 239   11:10   0.61   96.5    12    6.4   172    13.4   931.6    0.00 
 239   11:20   0.62   96.4    12    6.0   189    10.7   931.5    0.00 
 239   11:30   0.63   97.6    12    7.4   183    15.1   931.5    0.00 
 239   11:40   0.62   96.9    12    7.4   174    15.6   931.4    0.00 
 239   11:50   0.62   97.4    12    7.6   169    14.5   931.3    0.00 
 239   12:00   0.62   96.9    13    8.7   196    19.8   931.2    0.00 
 239   12:10   0.62   97.1    13    8.4   178    14.0   931.1    0.00 
 239   12:20   0.62   97.1    13    7.2   172    14.1   931.0    0.00 
 239   12:30   0.62   97.8    12    8.3   174    16.4   930.9    0.00 
 239   12:40   0.61   97.3    12    8.3   182    15.7   930.8    0.00 
 239   12:50   0.61   97.4    12    8.5   166    15.3   930.8    0.00 
 239   13:00   0.60   97.7    12    8.9   182    16.2   930.7    0.00 
 239   13:10   0.59   98.1    12    7.3   190    15.0   930.5    0.00 
 239   13:20   0.59   98.2    12    7.0   199    14.9   930.3    0.00 
 239   13:30   0.58   98.2    11    7.7   177    20.0   930.1    0.00 
 239   13:40   0.56   98.3    12    7.6   175    14.0   930.1    0.00 
 239   13:50   0.55   98.2    12    6.9   188    15.7   930.0    0.00 
 239   14:00   0.53   98.2    12    6.3   191    13.8   929.8    0.00 
 239   14:10   0.52   98.0    12    7.4   171    15.8   929.8    0.00 
 239   14:20   0.52   97.9    12    7.2   180    18.9   929.6    0.00 
 239   14:30   0.48   97.8    12    6.1   205    17.5   929.5    0.00 
 239   14:40   0.48   98.3    13    7.6   209    16.7   929.5    0.00 
 239   14:50   0.45   97.6    12    8.2   208    14.5   929.4    0.00 
 239   15:00   0.43   97.3    12    7.3   196    13.2   929.4    0.00 
 239   15:10   0.41   97.6    13    6.5   208    24.5   929.3    0.00 
 239   15:20   0.39   97.0    13    6.5   227    13.6   929.2    0.00 
 239   15:30   0.32   96.7    13    7.1   198    14.7   929.1    0.00 
 239   15:40   0.35   96.6    13    6.8   201    14.2   929.0    0.00 
 239   15:50   0.32   96.5    13    6.6   197    12.2   928.9    0.00 
 239   16:00   0.31   96.4    13    6.0   204    12.2   928.8    0.00 
 239   16:10   0.27   96.5    13    6.8   197    13.5   928.8    0.00 
 239   16:20   0.25   96.0    13    5.6   195    10.6   928.8    0.00 
 239   16:30   0.23   95.9    13    6.6   192    14.4   928.8    0.00 
 239   16:40   0.20   95.2    13    6.2   196    11.5   928.8    0.00 
 239   16:50   0.17   94.9    14    6.0   199    12.2   928.7    0.00 
 239   17:00   0.15   94.8    13    4.3   184    10.4   928.6    0.00 
 239   17:10   0.13   94.6    14    4.5   192     9.0   928.5    0.00 
 239   17:20   0.11   93.7    14    5.0   189     9.6   928.4    0.00 
 239   17:30   0.09   93.1    14    4.5   187     8.2   928.3    0.00 
 239   17:40   0.07   92.4    14    3.6   183     7.1   928.2    0.00 
 239   17:50   0.05   91.7    14    2.6   183     5.7   928.2    0.00 
 239   18:00   0.03   90.1    16    2.3   182     4.5   928.2    0.00 
 239   18:10   0.01   88.6    17    2.8   170     5.7   928.2    0.00 
 239   18:20   0.01   87.7    17    3.3   177     6.1   928.2    0.00 
 239   18:30   0.00   86.7    18    3.4   171     5.8   928.1    0.00 
 239   18:40   0.00   87.1    20    5.0   166     9.3   928.3    0.00 
 239   18:50   0.00   87.0    21    4.3   165     7.8   928.3    0.00 
 239   19:00   0.00   86.3    21    4.2   161     8.3   928.5    0.00 
 239   19:10   0.00   85.4    22    3.7   161     6.4   928.6    0.00 
 239   19:20   0.00   84.2    22    3.2   157     4.7   928.7    0.00 
 239   19:30   0.00   83.1    23    3.2   154     4.9   928.8    0.00 
 239   19:40   0.00   83.0    22    3.2   157     6.1   928.9    0.00 
 239   19:50   0.00   82.7    22    2.7   151     4.2   928.9    0.00 
 239   20:00   0.00   82.1    23    2.4   148     4.0   929.0    0.00 
 239   20:10   0.00   81.6    24    2.5   149     3.9   929.1    0.00 
 239   20:20   0.00   80.9    24    2.9   161     5.4   929.1    0.00 
 239   20:30   0.00   81.8    23    3.6   151     5.6   929.3    0.00 
 239   20:40   0.00   82.8    22    3.6   155     6.6   929.4    0.00 
 239   20:50   0.00   82.7    23    4.0   153     6.5   929.6    0.00 
 239   21:00   0.00   84.0    22    7.0   156    15.3   929.7    0.00 
 239   21:10   0.00   85.0    23    6.8   158    13.4   929.8    0.00 
 239   21:20   0.00   84.2    24    7.7   155    15.7   929.9    0.00 
 239   21:30   0.00   84.5    24    9.3   153    16.7   929.9    0.00 
 239   21:40   0.00   84.6    25   10.0   154    16.5   929.9    0.00 
 239   21:50   0.00   84.8    26   10.9   152    20.5   929.8    0.00 
 239   22:00   0.00   84.3    27    9.0   148    16.1   929.9    0.00 
 239   22:10   0.00   83.9    28    9.3   153    18.0   929.9    0.00 
 239   22:20   0.00   83.6    29   10.8   153    20.7   930.0    0.00 
 239   22:30   0.00   83.1    30   10.7   150    19.6   930.0    0.00 
 239   22:40   0.00   82.6    32   10.1   157    18.3   930.0    0.00 
 239   22:50   0.00   82.0    33   10.2   158    18.9   930.1    0.00 
 239   23:00   0.00   81.3    34    9.1   155    17.2   930.1    0.00 
 239   23:10   0.00   80.6    34    8.4   156    14.4   930.3    0.00 
 239   23:20   0.00   80.3    36    7.9   155    14.9   930.4    0.00 
 239   23:30   0.00   80.4    36    9.2   153    18.7   930.5    0.00 
 239   23:40   0.00   80.1    37   11.5   153    20.9   930.5    0.00 
 239   23:50   0.00   79.2    39   10.3   155    19.4   930.7    0.00 
 240    0:00   0.00   78.2    42   11.2   156    20.7   930.8    0.00 
 240    0:10   0.00   77.5    46   10.0   151    18.1   930.8    0.00 
 240    0:20   0.00   77.1    46    9.5   151    16.6   930.9    0.00 
 240    0:30   0.00   76.6    46    9.0   155    18.1   930.9    0.00 
 240    0:40   0.00   76.1    46    7.9   151    15.8   931.0    0.00 
 240    0:50   0.00   76.0    46    6.3   148    13.9   931.1    0.00 
 240    1:00   0.00   76.1    46    4.9   146    10.3   931.2    0.00 
 240    1:10   0.00   76.7    43    4.7   136    12.6   931.2    0.00 
 240    1:20   0.00   78.2    39    4.4   129    11.0   931.2    0.00 
 240    1:30   0.00   76.3    44    4.0   158     8.4   931.2    0.00 
 240    1:40   0.00   75.7    45    5.3   152    10.5   931.3    0.00 
 240    1:50   0.00   75.5    45    4.4   160     8.6   931.3    0.00 
 240    2:00   0.00   75.7    44    3.3   154     7.1   931.3    0.00 
 240    2:10   0.00   75.0    44    2.9   160     6.2   931.3    0.00 
 240    2:20   0.00   75.3    44    4.3   162     7.4   931.4    0.00 
 240    2:30   0.00   75.4    43    4.0   170     7.8   931.4    0.00 
 240    2:40   0.00   75.8    43    5.5   171    10.4   931.4    0.00 
 240    2:50   0.00   75.5    44    4.6   170     8.3   931.6    0.00 
 240    3:00   0.00   74.9    44    4.2   164     8.3   931.7    0.00 
 240    3:10   0.00   74.9    44    4.2   103    12.9   931.9    0.00 
 240    3:20   0.00   76.0    42    2.7   103     5.7   931.9    0.00 
 240    3:30   0.00   74.6    44    2.1   162     4.1   931.9    0.00 
 240    3:40   0.00   72.2    47    2.1   174     4.7   931.9    0.00 
 240    3:50   0.00   71.8    48    2.3   168     4.5   932.0    0.00 
 240    4:00   0.00   71.6    48    2.3   154     5.0   932.1    0.00 
 240    4:10   0.00   70.8    50    2.5   119     4.7   932.1    0.00 
 240    4:20   0.00   71.7    48    1.8   112     5.0   932.3    0.00 
 240    4:30   0.00   72.1    48    3.4   141     9.1   932.5    0.00 
 240    4:40   0.00   72.6    48    3.7   166     7.9   932.6    0.00 

Return to Rogers Spring graphs page.


Western Regional Climate Center,wrcc@dri.edu